Terminal Aerodrome Forecast
Issued by NWS Charleston, WV

Home | Current Version | Previous Version | Text Only | Print | Product List | Glossary On
Versions: 1 2 3 4 5 6 7 8 9 10 11 12 13 14 15 16 17 18 19 20 21 22 23 24 25 26 27 28
000
FTUS41 KRLX 021958 AAA
TAFBKW
TAF AMD
KBKW 021958Z 0220/0318 VRB04KT 4SM -SHRA BR BKN010 OVC050
      TEMPO 0220/0222 2SM SHRA BR BKN006 OVC020
     FM022300 VRB03KT 5SM HZ VCSH BKN025 OVC050
     FM030100 00000KT 3SM BR OVC008
     FM030300 00000KT 1SM BR OVC004
     FM031300 00000KT 3SM BR OVC007
     FM031400 00000KT 6SM HZ VCSH OVC015
     FM031600 VRB03KT 5SM SHRA VCTS OVC015CB=

USA.gov is the U.S. government's official web portal to all federal, state and local government web resources and services.